Wetterstation-Oberesslingen
Wetterdaten: aktuell Freitag, 20.07.2018 14:15
Datum Zeit Temperatur Temp+5cm Luftfeuchte Luftdruck Regen Wind Richtung Richtung Sonnenschein Zeit Regen ET Solar Taupunkt Windchill Windben
20.07.2018 14:15 30,6 C 46,1 C 32 % 1011,3 hPa 0,0 l/m 3,3 km/h (1 Bft) O 84 60 min 0 min 0,610 mm 914 W/m 12,0 C 30,6 C 6,0 km/h (2 Bft)
20.07.2018 13:15 29,4 C 45,0 C 35 % 1011,8 hPa 0,0 l/m 4,2 km/h (1 Bft) O 79 45 min 0 min 0,482 mm 846 W/m 12,3 C 29,4 C 7,6 km/h (2 Bft)
20.07.2018 12:15 28,3 C 43,9 C 38 % 1012,6 hPa 0,0 l/m 3,7 km/h (1 Bft) O-SO 105 60 min 0 min 0,508 mm 916 W/m 12,6 C 28,3 C 7,6 km/h (2 Bft)
20.07.2018 11:10 25,5 C 40,0 C 43 % 1013,0 hPa 0,0 l/m 4,6 km/h (1 Bft) O-SO 114 60 min 0 min 0,407 mm 714 W/m 12,0 C 25,5 C 10,8 km/h (2 Bft)
20.07.2018 10:10 21,9 C 34,4 C 56 % 1013,5 hPa 0,0 l/m 4,3 km/h (1 Bft) O-SO 104 40 min 0 min 0,203 mm 601 W/m 12,7 C 21,9 C 9,2 km/h (2 Bft)
20.07.2018 08:40 19,1 C 27,2 C 67 % 1013,6 hPa 0,0 l/m 5,2 km/h (1 Bft) S-SO 159 20 min 0 min 0,076 mm 411 W/m 12,8 C 19,1 C 7,6 km/h (2 Bft)
20.07.2018 07:40 17,1 C 17,2 C 72 % 1013,8 hPa 0,0 l/m 4,4 km/h (1 Bft) O 97 30 min 0 min 0,051 mm 65 W/m 12,0 C 17,1 C 6,0 km/h (2 Bft)
20.07.2018 06:35 15,5 C 15,6 C 79 % 1014,0 hPa 0,0 l/m 4,0 km/h (1 Bft) O 91 10 min 0 min 0,000 mm 69 W/m 11,9 C 15,5 C 6,0 km/h (2 Bft)
20.07.2018 05:25 14,5 C 12,2 C 80 % 1014,1 hPa 0,0 l/m 1,1 km/h (1 Bft) O-SO 115 0 min 0 min 0,000 mm 0 W/m 11,1 C 14,5 C 1,1 km/h (1 Bft)
20.07.2018 04:00 15,0 C 11,7 C 78 % 1014,2 hPa 0,0 l/m 2,1 km/h (1 Bft) O-SO 115 0 min 0 min 0,000 mm 0 W/m 11,2 C 15,0 C 2,7 km/h (1 Bft)
20.07.2018 02:40 16,4 C 14,4 C 72 % 1014,6 hPa 0,0 l/m 1,1 km/h (1 Bft) O-SO 115 0 min 0 min 0,000 mm 0 W/m 11,3 C 16,4 C 1,1 km/h (1 Bft)
20.07.2018 01:25 16,9 C 13,3 C 69 % 1014,9 hPa 0,0 l/m 1,9 km/h (1 Bft) O-SO 115 0 min 0 min 0,025 mm 0 W/m 11,2 C 16,9 C 4,3 km/h (1 Bft)
20.07.2018 00:10 18,6 C 14,4 C 63 % 1014,9 hPa 0,0 l/m 2,1 km/h (1 Bft) O-SO 115 0 min 0 min 0,000 mm 0 W/m 11,4 C 18,6 C 2,7 km/h (1 Bft)
19.07.2018 22:50 20,9 C 17,2 C 55 % 1014,7 hPa 0,0 l/m 1,2 km/h (1 Bft) N 9 0 min 0 min 0,001 mm 0 W/m 11,5 C 20,9 C 2,7 km/h (1 Bft)
19.07.2018 21:51 22,2 C 17,8 C 47 % 1014,5 hPa 0,0 l/m 2,6 km/h (1 Bft) N-NW 339 10 min 0 min 0,050 mm 0 W/m 10,3 C 22,2 C 4,3 km/h (1 Bft)
19.07.2018 20:50 24,9 C 20,6 C 39 % 1014,0 hPa 0,0 l/m 3,5 km/h (1 Bft) NW 323 0 min 0 min 0,178 mm 23 W/m 10,0 C 24,9 C 12,4 km/h (2 Bft)
19.07.2018 19:50 27,3 C 25,6 C 33 % 1014,0 hPa 0,0 l/m 6,7 km/h (2 Bft) W-NW 295 40 min 0 min 0,001 mm 63 W/m 9,6 C 27,3 C 15,6 km/h (3 Bft)
19.07.2018 18:50 28,4 C 27,8 C 33 % 1014,0 hPa 0,0 l/m 4,4 km/h (1 Bft) O-NO 71 60 min 0 min 0,381 mm 274 W/m 10,6 C 28,4 C 9,2 km/h (2 Bft)
19.07.2018 17:45 29,3 C 35,0 C 29 % 1014,4 hPa 0,0 l/m 7,4 km/h (2 Bft) W-NW 290 60 min 0 min 0,482 mm 455 W/m 9,4 C 29,3 C 15,6 km/h (3 Bft)
19.07.2018 16:45 29,9 C 40,6 C 28 % 1014,7 hPa 0,0 l/m 5,8 km/h (2 Bft) NW 323 60 min 0 min 0,559 mm 606 W/m 9,4 C 29,9 C 10,8 km/h (2 Bft)
19.07.2018 15:45 29,4 C 41,1 C 28 % 1015,2 hPa 0,0 l/m 6,4 km/h (2 Bft) O-SO 105 45 min 0 min 0,584 mm 731 W/m 9,0 C 29,4 C 12,4 km/h (2 Bft)
19.07.2018 15:00 28,6 C 42,8 C 33 % 1015,3 hPa 0,0 l/m 6,3 km/h (2 Bft) SW 224 0 min 0 min 0,584 mm 795 W/m 10,7 C 28,6 C 14,0 km/h (3 Bft)
_ Min-Zeit 05:35 04:00 16:05 14:10 - 01:20 - - - - - - 17:10 05:35 01:20
Minimum _ 14,4 C 11,7 C 27 % 1011,3 hPa - 1,1 km/h (1 Bft) - - - - - - 8,7 C 14,4 C 1,1 km/h (1 Bft)
_ Max-Zeit 14:05 14:00 05:15 15:00 15:00 15:40 - - 15:25 15:00 14:00 12:35 10:15 14:05 16:55
Maximum _ 30,8 C 46,1 C 80 % 1015,3 hPa 0,0 l/m 10,0 km/h
NW (2 Bft)
- - 10 min 0 min 0,610 mm 949 W/m 13,7 C 30,8 C 22,1 km/h
W-NW (4 Bft)
Durchschnitt _ 22,8 C 26,6 C 52 % 1014,1 hPa #0,0 l/m 4,0 km/h (1 Bft) O-SO - #5:45 h #0 min. #2,540 mm 464 W/m 11,2 C 22,8 C 7,9 km/h (2 Bft)